sensor_id;sensor_type;location;lat;lon;timestamp;P1;durP1;ratioP1;P2;durP2;ratioP2
27728;SDS011;15126;42.186;24.340;2023-05-16T00:01:49;46.33;;;41.53;;
27728;SDS011;15126;42.186;24.340;2023-05-16T00:04:16;46.13;;;41.17;;
27728;SDS011;15126;42.186;24.340;2023-05-16T00:06:43;48.47;;;41.20;;
27728;SDS011;15126;42.186;24.340;2023-05-16T00:09:09;47.80;;;41.90;;
27728;SDS011;15126;42.186;24.340;2023-05-16T00:11:36;48.10;;;43.07;;
27728;SDS011;15126;42.186;24.340;2023-05-16T00:14:04;48.23;;;43.20;;
27728;SDS011;15126;42.186;24.340;2023-05-16T00:16:31;45.80;;;41.03;;
27728;SDS011;15126;42.186;24.340;2023-05-16T00:19:01;49.67;;;44.57;;
27728;SDS011;15126;42.186;24.340;2023-05-16T00:21:28;47.23;;;42.47;;
27728;SDS011;15126;42.186;24.340;2023-05-16T00:23:55;47.17;;;42.27;;
27728;SDS011;15126;42.186;24.340;2023-05-16T00:26:22;48.00;;;42.77;;
27728;SDS011;15126;42.186;24.340;2023-05-16T00:28:49;48.30;;;43.33;;
27728;SDS011;15126;42.186;24.340;2023-05-16T00:31:17;49.33;;;43.00;;
27728;SDS011;15126;42.186;24.340;2023-05-16T00:33:44;51.87;;;45.03;;
27728;SDS011;15126;42.186;24.340;2023-05-16T00:36:10;48.40;;;43.53;;
27728;SDS011;15126;42.186;24.340;2023-05-16T00:38:37;51.10;;;43.77;;
27728;SDS011;15126;42.186;24.340;2023-05-16T00:41:04;51.00;;;45.40;;
27728;SDS011;15126;42.186;24.340;2023-05-16T00:43:31;49.63;;;43.33;;
27728;SDS011;15126;42.186;24.340;2023-05-16T00:45:57;49.57;;;43.50;;
27728;SDS011;15126;42.186;24.340;2023-05-16T00:48:26;54.90;;;41.50;;
27728;SDS011;15126;42.186;24.340;2023-05-16T00:50:53;48.63;;;43.57;;
27728;SDS011;15126;42.186;24.340;2023-05-16T00:53:22;50.40;;;43.27;;
27728;SDS011;15126;42.186;24.340;2023-05-16T00:55:49;53.87;;;44.30;;
27728;SDS011;15126;42.186;24.340;2023-05-16T00:58:16;45.63;;;40.93;;
27728;SDS011;15126;42.186;24.340;2023-05-16T01:00:44;47.53;;;42.60;;
27728;SDS011;15126;42.186;24.340;2023-05-16T01:03:12;50.37;;;42.17;;
27728;SDS011;15126;42.186;24.340;2023-05-16T01:05:40;54.67;;;44.13;;
27728;SDS011;15126;42.186;24.340;2023-05-16T01:08:07;52.30;;;42.63;;
27728;SDS011;15126;42.186;24.340;2023-05-16T01:10:35;52.17;;;43.43;;
27728;SDS011;15126;42.186;24.340;2023-05-16T01:13:10;48.30;;;42.90;;
27728;SDS011;15126;42.186;24.340;2023-05-16T01:15:45;59.27;;;44.73;;
27728;SDS011;15126;42.186;24.340;2023-05-16T01:18:18;52.23;;;45.13;;
27728;SDS011;15126;42.186;24.340;2023-05-16T01:20:53;50.03;;;43.57;;
27728;SDS011;15126;42.186;24.340;2023-05-16T01:23:33;50.73;;;45.13;;
27728;SDS011;15126;42.186;24.340;2023-05-16T01:26:19;54.83;;;46.03;;
27728;SDS011;15126;42.186;24.340;2023-05-16T01:28:48;50.60;;;45.00;;
27728;SDS011;15126;42.186;24.340;2023-05-16T01:31:15;51.97;;;43.50;;
27728;SDS011;15126;42.186;24.340;2023-05-16T01:33:42;51.57;;;44.60;;
27728;SDS011;15126;42.186;24.340;2023-05-16T01:36:11;51.50;;;46.20;;
27728;SDS011;15126;42.186;24.340;2023-05-16T01:38:43;51.70;;;45.20;;
27728;SDS011;15126;42.186;24.340;2023-05-16T01:41:20;50.90;;;45.50;;
27728;SDS011;15126;42.186;24.340;2023-05-16T01:43:51;59.93;;;46.53;;
27728;SDS011;15126;42.186;24.340;2023-05-16T01:46:26;54.53;;;46.93;;
27728;SDS011;15126;42.186;24.340;2023-05-16T01:48:57;53.80;;;46.83;;
27728;SDS011;15126;42.186;24.340;2023-05-16T01:51:31;56.13;;;45.63;;
27728;SDS011;15126;42.186;24.340;2023-05-16T01:53:59;53.23;;;47.23;;
27728;SDS011;15126;42.186;24.340;2023-05-16T01:56:32;56.30;;;45.03;;
27728;SDS011;15126;42.186;24.340;2023-05-16T01:59:00;53.30;;;46.97;;
27728;SDS011;15126;42.186;24.340;2023-05-16T02:01:28;55.20;;;49.40;;
27728;SDS011;15126;42.186;24.340;2023-05-16T02:03:56;58.93;;;46.80;;
27728;SDS011;15126;42.186;24.340;2023-05-16T02:06:22;48.87;;;43.53;;
27728;SDS011;15126;42.186;24.340;2023-05-16T02:08:50;54.03;;;48.17;;
27728;SDS011;15126;42.186;24.340;2023-05-16T02:11:17;50.80;;;44.77;;
27728;SDS011;15126;42.186;24.340;2023-05-16T02:13:45;48.63;;;43.33;;
27728;SDS011;15126;42.186;24.340;2023-05-16T02:16:12;49.13;;;43.17;;
27728;SDS011;15126;42.186;24.340;2023-05-16T02:18:38;50.57;;;45.00;;
27728;SDS011;15126;42.186;24.340;2023-05-16T02:21:05;53.50;;;45.67;;
27728;SDS011;15126;42.186;24.340;2023-05-16T02:23:32;56.83;;;46.53;;
27728;SDS011;15126;42.186;24.340;2023-05-16T02:25:59;54.90;;;48.40;;
27728;SDS011;15126;42.186;24.340;2023-05-16T02:28:26;55.53;;;49.73;;
27728;SDS011;15126;42.186;24.340;2023-05-16T02:30:57;53.27;;;47.67;;
27728;SDS011;15126;42.186;24.340;2023-05-16T02:33:25;54.43;;;48.43;;
27728;SDS011;15126;42.186;24.340;2023-05-16T02:35:52;55.47;;;49.40;;
27728;SDS011;15126;42.186;24.340;2023-05-16T02:38:19;56.47;;;50.47;;
27728;SDS011;15126;42.186;24.340;2023-05-16T02:40:46;60.00;;;48.70;;
27728;SDS011;15126;42.186;24.340;2023-05-16T02:43:12;59.10;;;51.43;;
27728;SDS011;15126;42.186;24.340;2023-05-16T02:45:39;55.47;;;49.57;;
27728;SDS011;15126;42.186;24.340;2023-05-16T02:48:08;56.13;;;50.43;;
27728;SDS011;15126;42.186;24.340;2023-05-16T02:50:35;54.33;;;48.63;;
27728;SDS011;15126;42.186;24.340;2023-05-16T02:53:04;54.47;;;48.67;;
27728;SDS011;15126;42.186;24.340;2023-05-16T02:55:31;53.63;;;47.87;;
27728;SDS011;15126;42.186;24.340;2023-05-16T02:57:58;53.87;;;48.23;;
27728;SDS011;15126;42.186;24.340;2023-05-16T03:00:24;57.10;;;49.47;;
27728;SDS011;15126;42.186;24.340;2023-05-16T03:02:51;52.73;;;46.50;;
27728;SDS011;15126;42.186;24.340;2023-05-16T03:05:19;53.50;;;47.13;;
27728;SDS011;15126;42.186;24.340;2023-05-16T03:07:46;54.73;;;48.87;;
27728;SDS011;15126;42.186;24.340;2023-05-16T03:10:13;55.97;;;48.93;;
27728;SDS011;15126;42.186;24.340;2023-05-16T03:12:40;56.77;;;50.27;;
27728;SDS011;15126;42.186;24.340;2023-05-16T03:15:07;58.30;;;52.27;;
27728;SDS011;15126;42.186;24.340;2023-05-16T03:17:35;58.07;;;51.97;;
27728;SDS011;15126;42.186;24.340;2023-05-16T03:20:02;62.17;;;54.50;;
27728;SDS011;15126;42.186;24.340;2023-05-16T03:22:35;60.07;;;54.07;;
27728;SDS011;15126;42.186;24.340;2023-05-16T03:25:01;58.73;;;52.77;;
27728;SDS011;15126;42.186;24.340;2023-05-16T03:27:28;56.67;;;50.47;;
27728;SDS011;15126;42.186;24.340;2023-05-16T03:29:55;56.27;;;50.33;;
27728;SDS011;15126;42.186;24.340;2023-05-16T03:32:22;54.83;;;49.07;;
27728;SDS011;15126;42.186;24.340;2023-05-16T03:34:49;57.47;;;50.40;;
27728;SDS011;15126;42.186;24.340;2023-05-16T03:37:16;55.87;;;49.90;;
27728;SDS011;15126;42.186;24.340;2023-05-16T03:39:44;56.90;;;51.07;;
27728;SDS011;15126;42.186;24.340;2023-05-16T03:42:10;64.27;;;52.37;;
27728;SDS011;15126;42.186;24.340;2023-05-16T03:44:37;55.73;;;50.07;;
27728;SDS011;15126;42.186;24.340;2023-05-16T03:47:04;59.80;;;53.83;;
27728;SDS011;15126;42.186;24.340;2023-05-16T03:49:31;59.83;;;53.73;;
27728;SDS011;15126;42.186;24.340;2023-05-16T03:51:58;60.27;;;54.03;;
27728;SDS011;15126;42.186;24.340;2023-05-16T03:54:24;67.00;;;55.67;;
27728;SDS011;15126;42.186;24.340;2023-05-16T03:56:52;68.57;;;56.37;;
27728;SDS011;15126;42.186;24.340;2023-05-16T03:59:19;61.80;;;55.30;;
27728;SDS011;15126;42.186;24.340;2023-05-16T04:01:46;60.50;;;54.27;;
27728;SDS011;15126;42.186;24.340;2023-05-16T04:04:13;61.53;;;55.10;;
27728;SDS011;15126;42.186;24.340;2023-05-16T04:06:40;59.87;;;52.67;;
27728;SDS011;15126;42.186;24.340;2023-05-16T04:09:06;56.30;;;50.43;;
27728;SDS011;15126;42.186;24.340;2023-05-16T04:11:33;55.60;;;50.10;;
27728;SDS011;15126;42.186;24.340;2023-05-16T04:14:01;56.57;;;50.77;;
27728;SDS011;15126;42.186;24.340;2023-05-16T04:16:28;57.57;;;51.87;;
27728;SDS011;15126;42.186;24.340;2023-05-16T04:18:55;55.97;;;50.27;;
27728;SDS011;15126;42.186;24.340;2023-05-16T04:21:23;57.23;;;51.53;;
27728;SDS011;15126;42.186;24.340;2023-05-16T04:23:50;56.53;;;50.27;;
27728;SDS011;15126;42.186;24.340;2023-05-16T04:26:16;54.67;;;48.97;;
27728;SDS011;15126;42.186;24.340;2023-05-16T04:28:46;52.63;;;47.40;;
27728;SDS011;15126;42.186;24.340;2023-05-16T04:31:14;56.77;;;49.07;;
27728;SDS011;15126;42.186;24.340;2023-05-16T04:33:40;56.27;;;50.40;;
27728;SDS011;15126;42.186;24.340;2023-05-16T04:36:07;55.23;;;49.57;;
27728;SDS011;15126;42.186;24.340;2023-05-16T04:38:34;52.00;;;46.73;;
27728;SDS011;15126;42.186;24.340;2023-05-16T04:41:01;52.90;;;47.50;;
27728;SDS011;15126;42.186;24.340;2023-05-16T04:43:28;56.60;;;51.17;;
27728;SDS011;15126;42.186;24.340;2023-05-16T04:45:56;55.20;;;49.70;;
27728;SDS011;15126;42.186;24.340;2023-05-16T04:48:25;58.63;;;52.50;;
27728;SDS011;15126;42.186;24.340;2023-05-16T04:50:51;62.17;;;55.90;;
27728;SDS011;15126;42.186;24.340;2023-05-16T04:53:18;59.60;;;53.97;;
27728;SDS011;15126;42.186;24.340;2023-05-16T04:55:45;57.93;;;52.07;;
27728;SDS011;15126;42.186;24.340;2023-05-16T04:58:12;58.03;;;52.30;;
27728;SDS011;15126;42.186;24.340;2023-05-16T05:00:39;56.30;;;50.57;;
27728;SDS011;15126;42.186;24.340;2023-05-16T05:03:06;54.13;;;49.17;;
27728;SDS011;15126;42.186;24.340;2023-05-16T05:05:35;55.30;;;49.77;;
27728;SDS011;15126;42.186;24.340;2023-05-16T05:08:01;50.17;;;45.67;;
27728;SDS011;15126;42.186;24.340;2023-05-16T05:10:28;49.40;;;43.93;;
27728;SDS011;15126;42.186;24.340;2023-05-16T05:12:55;48.70;;;43.83;;
27728;SDS011;15126;42.186;24.340;2023-05-16T05:15:22;44.43;;;40.00;;
27728;SDS011;15126;42.186;24.340;2023-05-16T05:17:49;46.10;;;41.53;;
27728;SDS011;15126;42.186;24.340;2023-05-16T05:20:16;45.90;;;41.43;;
27728;SDS011;15126;42.186;24.340;2023-05-16T05:22:44;45.37;;;40.90;;
27728;SDS011;15126;42.186;24.340;2023-05-16T05:25:11;46.43;;;41.57;;
27728;SDS011;15126;42.186;24.340;2023-05-16T05:27:38;49.57;;;44.27;;
27728;SDS011;15126;42.186;24.340;2023-05-16T05:30:05;50.67;;;45.47;;
27728;SDS011;15126;42.186;24.340;2023-05-16T05:32:33;54.80;;;49.20;;
27728;SDS011;15126;42.186;24.340;2023-05-16T05:34:59;58.10;;;51.67;;
27728;SDS011;15126;42.186;24.340;2023-05-16T05:37:26;56.93;;;51.20;;
27728;SDS011;15126;42.186;24.340;2023-05-16T05:39:54;60.83;;;55.03;;
27728;SDS011;15126;42.186;24.340;2023-05-16T05:42:21;64.03;;;57.30;;
27728;SDS011;15126;42.186;24.340;2023-05-16T05:44:48;59.60;;;53.97;;
27728;SDS011;15126;42.186;24.340;2023-05-16T05:47:15;55.17;;;49.97;;
27728;SDS011;15126;42.186;24.340;2023-05-16T05:49:42;56.10;;;50.87;;
27728;SDS011;15126;42.186;24.340;2023-05-16T05:52:09;55.10;;;49.67;;
27728;SDS011;15126;42.186;24.340;2023-05-16T05:54:35;55.30;;;49.60;;
27728;SDS011;15126;42.186;24.340;2023-05-16T05:57:04;54.90;;;49.47;;
27728;SDS011;15126;42.186;24.340;2023-05-16T05:59:31;58.43;;;52.90;;
27728;SDS011;15126;42.186;24.340;2023-05-16T06:01:58;59.43;;;53.37;;
27728;SDS011;15126;42.186;24.340;2023-05-16T06:04:25;59.20;;;53.20;;
27728;SDS011;15126;42.186;24.340;2023-05-16T06:06:51;57.63;;;51.87;;
27728;SDS011;15126;42.186;24.340;2023-05-16T06:09:19;53.53;;;48.40;;
27728;SDS011;15126;42.186;24.340;2023-05-16T06:11:46;57.87;;;51.90;;
27728;SDS011;15126;42.186;24.340;2023-05-16T06:14:14;55.63;;;50.33;;
27728;SDS011;15126;42.186;24.340;2023-05-16T06:16:41;57.60;;;51.90;;
27728;SDS011;15126;42.186;24.340;2023-05-16T06:19:08;58.80;;;52.90;;
27728;SDS011;15126;42.186;24.340;2023-05-16T06:21:36;53.47;;;48.07;;
27728;SDS011;15126;42.186;24.340;2023-05-16T06:24:03;60.20;;;50.50;;
27728;SDS011;15126;42.186;24.340;2023-05-16T06:26:30;56.43;;;50.67;;
27728;SDS011;15126;42.186;24.340;2023-05-16T06:28:58;57.03;;;51.33;;
27728;SDS011;15126;42.186;24.340;2023-05-16T06:31:26;53.73;;;48.10;;
27728;SDS011;15126;42.186;24.340;2023-05-16T06:33:53;54.10;;;48.50;;
27728;SDS011;15126;42.186;24.340;2023-05-16T06:36:20;60.17;;;53.73;;
27728;SDS011;15126;42.186;24.340;2023-05-16T06:38:47;61.13;;;55.00;;
27728;SDS011;15126;42.186;24.340;2023-05-16T06:41:14;61.93;;;54.10;;
27728;SDS011;15126;42.186;24.340;2023-05-16T06:43:41;63.07;;;56.47;;
27728;SDS011;15126;42.186;24.340;2023-05-16T06:46:08;63.93;;;57.67;;
27728;SDS011;15126;42.186;24.340;2023-05-16T06:48:36;63.03;;;56.57;;
27728;SDS011;15126;42.186;24.340;2023-05-16T06:51:03;61.33;;;54.87;;
27728;SDS011;15126;42.186;24.340;2023-05-16T06:53:30;73.87;;;55.77;;
27728;SDS011;15126;42.186;24.340;2023-05-16T06:55:57;64.80;;;53.83;;
27728;SDS011;15126;42.186;24.340;2023-05-16T06:58:23;63.43;;;54.73;;
27728;SDS011;15126;42.186;24.340;2023-05-16T07:00:50;64.53;;;56.23;;
27728;SDS011;15126;42.186;24.340;2023-05-16T07:03:17;57.27;;;51.47;;
27728;SDS011;15126;42.186;24.340;2023-05-16T07:05:45;64.70;;;58.33;;
27728;SDS011;15126;42.186;24.340;2023-05-16T07:08:12;62.83;;;56.50;;
27728;SDS011;15126;42.186;24.340;2023-05-16T07:10:39;62.57;;;56.37;;
27728;SDS011;15126;42.186;24.340;2023-05-16T07:13:06;62.57;;;56.30;;
27728;SDS011;15126;42.186;24.340;2023-05-16T07:15:33;60.53;;;54.30;;
27728;SDS011;15126;42.186;24.340;2023-05-16T07:18:00;60.33;;;54.03;;
27728;SDS011;15126;42.186;24.340;2023-05-16T07:20:29;62.43;;;55.97;;
27728;SDS011;15126;42.186;24.340;2023-05-16T07:22:57;58.93;;;52.30;;
27728;SDS011;15126;42.186;24.340;2023-05-16T07:25:24;60.23;;;53.90;;
27728;SDS011;15126;42.186;24.340;2023-05-16T07:27:50;57.93;;;52.07;;
27728;SDS011;15126;42.186;24.340;2023-05-16T07:30:17;58.27;;;52.50;;
27728;SDS011;15126;42.186;24.340;2023-05-16T07:32:45;58.47;;;52.20;;
27728;SDS011;15126;42.186;24.340;2023-05-16T07:35:12;59.93;;;53.70;;
27728;SDS011;15126;42.186;24.340;2023-05-16T07:37:39;60.83;;;54.47;;
27728;SDS011;15126;42.186;24.340;2023-05-16T07:40:09;57.30;;;51.17;;
27728;SDS011;15126;42.186;24.340;2023-05-16T07:42:36;57.00;;;51.33;;
27728;SDS011;15126;42.186;24.340;2023-05-16T07:45:03;57.10;;;50.97;;
27728;SDS011;15126;42.186;24.340;2023-05-16T07:47:32;55.40;;;49.43;;
27728;SDS011;15126;42.186;24.340;2023-05-16T07:49:59;56.03;;;50.43;;
27728;SDS011;15126;42.186;24.340;2023-05-16T07:52:26;58.23;;;52.60;;
27728;SDS011;15126;42.186;24.340;2023-05-16T07:54:53;57.97;;;52.03;;
27728;SDS011;15126;42.186;24.340;2023-05-16T07:57:21;57.83;;;51.83;;
27728;SDS011;15126;42.186;24.340;2023-05-16T07:59:48;56.90;;;51.10;;
27728;SDS011;15126;42.186;24.340;2023-05-16T08:02:16;54.33;;;48.60;;
27728;SDS011;15126;42.186;24.340;2023-05-16T08:04:43;58.63;;;52.77;;
27728;SDS011;15126;42.186;24.340;2023-05-16T08:07:09;56.30;;;50.57;;
27728;SDS011;15126;42.186;24.340;2023-05-16T08:09:36;60.87;;;54.93;;
27728;SDS011;15126;42.186;24.340;2023-05-16T08:12:03;61.53;;;55.27;;
27728;SDS011;15126;42.186;24.340;2023-05-16T08:14:32;56.20;;;50.30;;
27728;SDS011;15126;42.186;24.340;2023-05-16T08:16:58;55.40;;;49.70;;
27728;SDS011;15126;42.186;24.340;2023-05-16T08:19:26;64.20;;;53.80;;
27728;SDS011;15126;42.186;24.340;2023-05-16T08:21:53;54.20;;;48.93;;
27728;SDS011;15126;42.186;24.340;2023-05-16T08:24:20;65.87;;;51.13;;
27728;SDS011;15126;42.186;24.340;2023-05-16T08:26:47;57.00;;;50.57;;
27728;SDS011;15126;42.186;24.340;2023-05-16T08:29:13;58.17;;;52.00;;
27728;SDS011;15126;42.186;24.340;2023-05-16T08:31:42;54.60;;;49.20;;
27728;SDS011;15126;42.186;24.340;2023-05-16T08:34:09;58.13;;;51.23;;
27728;SDS011;15126;42.186;24.340;2023-05-16T08:36:36;55.07;;;49.70;;
27728;SDS011;15126;42.186;24.340;2023-05-16T08:39:03;58.40;;;52.17;;
27728;SDS011;15126;42.186;24.340;2023-05-16T08:41:30;57.43;;;51.33;;
27728;SDS011;15126;42.186;24.340;2023-05-16T08:43:57;51.13;;;46.00;;
27728;SDS011;15126;42.186;24.340;2023-05-16T08:46:24;53.23;;;47.63;;
27728;SDS011;15126;42.186;24.340;2023-05-16T08:48:57;55.43;;;50.20;;
27728;SDS011;15126;42.186;24.340;2023-05-16T08:51:25;54.97;;;49.67;;
27728;SDS011;15126;42.186;24.340;2023-05-16T08:53:56;54.90;;;49.50;;
27728;SDS011;15126;42.186;24.340;2023-05-16T08:56:26;57.17;;;51.20;;
27728;SDS011;15126;42.186;24.340;2023-05-16T08:58:53;52.27;;;46.83;;
27728;SDS011;15126;42.186;24.340;2023-05-16T09:01:22;54.57;;;49.07;;
27728;SDS011;15126;42.186;24.340;2023-05-16T09:03:49;55.97;;;50.47;;
27728;SDS011;15126;42.186;24.340;2023-05-16T09:06:18;49.70;;;44.93;;
27728;SDS011;15126;42.186;24.340;2023-05-16T09:08:45;48.40;;;43.77;;
27728;SDS011;15126;42.186;24.340;2023-05-16T09:11:12;51.53;;;46.13;;
27728;SDS011;15126;42.186;24.340;2023-05-16T09:13:39;53.03;;;47.90;;
27728;SDS011;15126;42.186;24.340;2023-05-16T09:16:09;45.73;;;41.30;;
27728;SDS011;15126;42.186;24.340;2023-05-16T09:18:37;45.90;;;41.53;;
27728;SDS011;15126;42.186;24.340;2023-05-16T09:21:05;49.90;;;45.27;;
27728;SDS011;15126;42.186;24.340;2023-05-16T09:23:34;50.30;;;45.43;;
27728;SDS011;15126;42.186;24.340;2023-05-16T09:26:01;52.17;;;46.97;;
27728;SDS011;15126;42.186;24.340;2023-05-16T09:28:32;52.43;;;47.23;;
27728;SDS011;15126;42.186;24.340;2023-05-16T09:30:59;51.23;;;44.43;;
27728;SDS011;15126;42.186;24.340;2023-05-16T09:33:26;47.23;;;42.77;;
27728;SDS011;15126;42.186;24.340;2023-05-16T09:35:54;49.03;;;44.53;;
27728;SDS011;15126;42.186;24.340;2023-05-16T09:38:23;51.10;;;46.30;;
27728;SDS011;15126;42.186;24.340;2023-05-16T09:40:52;50.33;;;45.30;;
27728;SDS011;15126;42.186;24.340;2023-05-16T09:43:20;48.93;;;44.13;;
27728;SDS011;15126;42.186;24.340;2023-05-16T09:45:48;49.50;;;44.77;;
27728;SDS011;15126;42.186;24.340;2023-05-16T09:48:15;53.07;;;48.07;;
27728;SDS011;15126;42.186;24.340;2023-05-16T09:50:45;52.80;;;47.70;;
27728;SDS011;15126;42.186;24.340;2023-05-16T09:53:15;53.23;;;47.60;;
27728;SDS011;15126;42.186;24.340;2023-05-16T09:55:42;52.50;;;47.83;;
27728;SDS011;15126;42.186;24.340;2023-05-16T09:58:10;49.57;;;45.00;;
27728;SDS011;15126;42.186;24.340;2023-05-16T10:00:37;52.07;;;46.83;;
27728;SDS011;15126;42.186;24.340;2023-05-16T10:03:05;54.00;;;48.47;;
27728;SDS011;15126;42.186;24.340;2023-05-16T10:05:33;51.70;;;46.60;;
27728;SDS011;15126;42.186;24.340;2023-05-16T10:08:01;50.67;;;45.97;;
27728;SDS011;15126;42.186;24.340;2023-05-16T10:10:29;50.87;;;46.03;;
27728;SDS011;15126;42.186;24.340;2023-05-16T10:12:58;49.97;;;44.73;;
27728;SDS011;15126;42.186;24.340;2023-05-16T10:15:31;52.57;;;47.23;;
27728;SDS011;15126;42.186;24.340;2023-05-16T10:17:58;52.17;;;47.07;;
27728;SDS011;15126;42.186;24.340;2023-05-16T10:20:25;50.70;;;45.97;;
27728;SDS011;15126;42.186;24.340;2023-05-16T10:22:53;51.20;;;46.50;;
27728;SDS011;15126;42.186;24.340;2023-05-16T10:25:23;50.00;;;45.33;;
27728;SDS011;15126;42.186;24.340;2023-05-16T10:27:53;53.70;;;48.13;;
27728;SDS011;15126;42.186;24.340;2023-05-16T10:30:21;56.67;;;49.17;;
27728;SDS011;15126;42.186;24.340;2023-05-16T10:32:49;50.73;;;46.13;;
27728;SDS011;15126;42.186;24.340;2023-05-16T10:35:18;52.90;;;47.60;;
27728;SDS011;15126;42.186;24.340;2023-05-16T10:37:45;51.77;;;47.17;;
27728;SDS011;15126;42.186;24.340;2023-05-16T10:40:13;50.53;;;45.87;;
27728;SDS011;15126;42.186;24.340;2023-05-16T10:42:43;50.97;;;46.33;;
27728;SDS011;15126;42.186;24.340;2023-05-16T10:45:20;52.83;;;47.43;;
27728;SDS011;15126;42.186;24.340;2023-05-16T10:47:52;51.27;;;46.07;;
27728;SDS011;15126;42.186;24.340;2023-05-16T10:50:32;51.50;;;46.97;;
27728;SDS011;15126;42.186;24.340;2023-05-16T10:53:13;52.13;;;47.57;;
27728;SDS011;15126;42.186;24.340;2023-05-16T10:56:05;55.30;;;49.50;;
27728;SDS011;15126;42.186;24.340;2023-05-16T10:58:41;51.90;;;46.50;;
27728;SDS011;15126;42.186;24.340;2023-05-16T11:01:19;52.33;;;47.03;;
27728;SDS011;15126;42.186;24.340;2023-05-16T11:04:05;58.93;;;47.87;;
27728;SDS011;15126;42.186;24.340;2023-05-16T11:06:43;52.73;;;47.73;;
27728;SDS011;15126;42.186;24.340;2023-05-16T11:09:24;56.37;;;51.00;;
27728;SDS011;15126;42.186;24.340;2023-05-16T11:11:56;54.43;;;49.33;;
27728;SDS011;15126;42.186;24.340;2023-05-16T11:14:25;54.37;;;49.03;;
27728;SDS011;15126;42.186;24.340;2023-05-16T11:16:58;51.70;;;46.53;;
27728;SDS011;15126;42.186;24.340;2023-05-16T11:19:31;51.27;;;46.43;;
27728;SDS011;15126;42.186;24.340;2023-05-16T11:22:12;49.53;;;44.77;;
27728;SDS011;15126;42.186;24.340;2023-05-16T11:24:58;46.37;;;42.27;;
27728;SDS011;15126;42.186;24.340;2023-05-16T11:27:27;47.57;;;42.97;;
27728;SDS011;15126;42.186;24.340;2023-05-16T11:29:57;48.50;;;43.90;;
27728;SDS011;15126;42.186;24.340;2023-05-16T11:32:26;44.93;;;40.73;;
27728;SDS011;15126;42.186;24.340;2023-05-16T11:34:54;45.33;;;41.13;;
27728;SDS011;15126;42.186;24.340;2023-05-16T11:37:21;46.80;;;42.37;;
27728;SDS011;15126;42.186;24.340;2023-05-16T11:39:48;42.17;;;38.27;;
27728;SDS011;15126;42.186;24.340;2023-05-16T11:42:15;43.20;;;39.33;;
27728;SDS011;15126;42.186;24.340;2023-05-16T11:44:43;42.17;;;38.27;;
27728;SDS011;15126;42.186;24.340;2023-05-16T11:47:10;46.83;;;42.23;;
27728;SDS011;15126;42.186;24.340;2023-05-16T11:49:37;46.63;;;41.83;;
27728;SDS011;15126;42.186;24.340;2023-05-16T11:52:07;44.43;;;40.30;;
27728;SDS011;15126;42.186;24.340;2023-05-16T11:54:34;42.80;;;38.90;;
27728;SDS011;15126;42.186;24.340;2023-05-16T11:57:02;44.97;;;40.83;;
27728;SDS011;15126;42.186;24.340;2023-05-16T11:59:29;46.70;;;41.33;;
27728;SDS011;15126;42.186;24.340;2023-05-16T12:01:56;45.73;;;41.50;;
27728;SDS011;15126;42.186;24.340;2023-05-16T12:04:23;48.13;;;43.67;;
27728;SDS011;15126;42.186;24.340;2023-05-16T12:06:57;47.30;;;42.77;;
27728;SDS011;15126;42.186;24.340;2023-05-16T12:09:27;50.23;;;45.03;;
27728;SDS011;15126;42.186;24.340;2023-05-16T12:11:54;49.87;;;45.37;;
27728;SDS011;15126;42.186;24.340;2023-05-16T12:14:21;55.63;;;50.27;;
27728;SDS011;15126;42.186;24.340;2023-05-16T12:16:49;54.03;;;48.93;;
27728;SDS011;15126;42.186;24.340;2023-05-16T12:19:17;56.90;;;50.90;;
27728;SDS011;15126;42.186;24.340;2023-05-16T12:21:45;57.20;;;51.73;;
27728;SDS011;15126;42.186;24.340;2023-05-16T12:24:11;60.87;;;54.97;;
27728;SDS011;15126;42.186;24.340;2023-05-16T12:26:40;60.50;;;54.80;;
27728;SDS011;15126;42.186;24.340;2023-05-16T12:29:07;58.93;;;53.33;;
27728;SDS011;15126;42.186;24.340;2023-05-16T12:31:36;59.10;;;53.60;;
27728;SDS011;15126;42.186;24.340;2023-05-16T12:34:04;56.23;;;51.17;;
27728;SDS011;15126;42.186;24.340;2023-05-16T12:36:40;50.77;;;45.67;;
27728;SDS011;15126;42.186;24.340;2023-05-16T12:39:10;52.63;;;47.40;;
27728;SDS011;15126;42.186;24.340;2023-05-16T12:41:40;53.33;;;48.33;;
27728;SDS011;15126;42.186;24.340;2023-05-16T12:44:11;53.23;;;47.77;;
27728;SDS011;15126;42.186;24.340;2023-05-16T12:46:41;54.83;;;49.43;;
27728;SDS011;15126;42.186;24.340;2023-05-16T12:49:09;61.53;;;55.60;;
27728;SDS011;15126;42.186;24.340;2023-05-16T12:51:35;59.23;;;53.37;;
27728;SDS011;15126;42.186;24.340;2023-05-16T12:54:09;61.53;;;55.33;;
27728;SDS011;15126;42.186;24.340;2023-05-16T12:56:37;57.50;;;52.00;;
27728;SDS011;15126;42.186;24.340;2023-05-16T12:59:06;70.80;;;63.93;;
27728;SDS011;15126;42.186;24.340;2023-05-16T13:01:33;73.00;;;65.60;;
27728;SDS011;15126;42.186;24.340;2023-05-16T13:04:00;63.47;;;57.37;;
27728;SDS011;15126;42.186;24.340;2023-05-16T13:06:28;61.33;;;55.27;;
27728;SDS011;15126;42.186;24.340;2023-05-16T13:08:55;60.07;;;54.43;;
27728;SDS011;15126;42.186;24.340;2023-05-16T13:11:24;57.43;;;52.00;;
27728;SDS011;15126;42.186;24.340;2023-05-16T13:13:52;53.83;;;48.80;;
27728;SDS011;15126;42.186;24.340;2023-05-16T13:16:19;53.83;;;48.73;;
27728;SDS011;15126;42.186;24.340;2023-05-16T13:18:46;54.97;;;49.00;;
27728;SDS011;15126;42.186;24.340;2023-05-16T13:21:13;58.40;;;51.57;;
27728;SDS011;15126;42.186;24.340;2023-05-16T13:23:40;53.77;;;48.63;;
27728;SDS011;15126;42.186;24.340;2023-05-16T13:26:06;56.50;;;51.13;;
27728;SDS011;15126;42.186;24.340;2023-05-16T13:28:33;54.87;;;49.63;;
27728;SDS011;15126;42.186;24.340;2023-05-16T13:31:03;55.03;;;49.83;;
27728;SDS011;15126;42.186;24.340;2023-05-16T13:33:30;56.03;;;50.60;;
27728;SDS011;15126;42.186;24.340;2023-05-16T13:35:56;54.37;;;49.47;;
27728;SDS011;15126;42.186;24.340;2023-05-16T13:38:23;53.67;;;48.53;;
27728;SDS011;15126;42.186;24.340;2023-05-16T13:40:50;54.27;;;48.83;;
27728;SDS011;15126;42.186;24.340;2023-05-16T13:43:17;56.27;;;51.27;;
27728;SDS011;15126;42.186;24.340;2023-05-16T13:45:44;54.73;;;49.27;;
27728;SDS011;15126;42.186;24.340;2023-05-16T13:48:12;53.60;;;48.47;;
27728;SDS011;15126;42.186;24.340;2023-05-16T13:50:39;56.37;;;51.03;;
27728;SDS011;15126;42.186;24.340;2023-05-16T13:53:06;56.50;;;50.77;;
27728;SDS011;15126;42.186;24.340;2023-05-16T13:55:33;62.60;;;54.00;;
27728;SDS011;15126;42.186;24.340;2023-05-16T13:58:00;58.73;;;52.93;;
27728;SDS011;15126;42.186;24.340;2023-05-16T14:00:27;63.60;;;57.33;;
27728;SDS011;15126;42.186;24.340;2023-05-16T14:02:54;59.53;;;53.73;;
27728;SDS011;15126;42.186;24.340;2023-05-16T14:05:22;59.90;;;54.17;;
27728;SDS011;15126;42.186;24.340;2023-05-16T14:07:50;60.43;;;54.57;;
27728;SDS011;15126;42.186;24.340;2023-05-16T14:10:17;59.97;;;53.67;;
27728;SDS011;15126;42.186;24.340;2023-05-16T14:12:44;61.03;;;55.23;;
27728;SDS011;15126;42.186;24.340;2023-05-16T14:15:11;63.07;;;57.03;;